Weather observations for the past three days for
Grand Marais, The Bay of Grand Marais
Imperial (Metric)
Date Time (cdt) Wind (mph) Vis. (mi.) Weather Sky Cond. Temperature (ºF) Relative Humidity Wind Chill (°F) Heat Index (°F) Pressure Precipitation (in)
Air Dwpt 6 hour altimeter (in) sea level (mb) 1 hr 3 hr 6 hr
Max. Min.
01 14:56 W 9 G 20 0.00 NULL NULL 69.1 60.1 73% 29.82 1009.4
01 13:56 W 12 G 24 0.00 NULL NULL 68 59 73% 29.83 1009.9
01 11:56 W 9 0.00 NULL NULL 66.9 59 76% 29.86 1010.7
01 10:56 W 8 G 20 0.00 NULL NULL 66 59 78% 29.87 1011.1
01 09:56 SW 5 0.00 NULL NULL 61 60.1 97% 29.87 1011.1
01 08:56 Calm 0.00 NULL NULL 59 57.9 96% 29.87 1011.1
01 07:56 Calm 0.00 NULL NULL 57.9 57.9 100% 29.87 1011.2
01 06:56 Calm 0.00 NULL NULL 57.9 57.9 60.1 55.9 100% 29.87 1011.2
01 05:56 Calm 0.00 NULL NULL 57 55.9 96% 29.86 1010.9
01 04:56 Calm 0.00 NULL NULL 55.9 55.9 100% 29.85 1010.5
01 03:56 Calm 0.00 NULL NULL 57 57 100% 29.85 1010.6
01 02:56 NW 3 0.00 NULL NULL 59 59 100% 29.87 1011.1
01 01:56 W 3 0.00 NULL NULL 60.1 60.1 100% 29.86 1010.8
01 00:56 Calm 0.00 NULL NULL 60.1 60.1 63 60.1 100% 29.87 1011.0
31 23:56 W 3 0.00 NULL NULL 61 61 100% 29.86 1010.7
31 22:56 W 3 0.00 NULL NULL 62.1 62.1 100% 29.86 1010.8
31 21:56 W 3 0.00 NULL NULL 62.1 62.1 100% 29.86 1010.7
31 20:56 Calm 0.00 NULL NULL 62.1 62.1 100% 29.86 1010.7
31 19:56 Calm 0.00 NULL NULL 63 63 100% 29.85 1010.3
31 17:56 Calm 0.00 NULL NULL 63 63 100% 29.83 1009.8
31 16:56 Calm 0.00 NULL NULL 64.9 63 93% 29.83 1009.6
31 15:56 E 3 0.00 NULL NULL 64.9 64 97% 29.83 1009.6
31 14:56 E 8 0.00 NULL NULL 64.9 64 97% 29.82 1009.4
31 13:56 E 6 0.00 NULL NULL 64.9 64 97% 29.82 1009.3
31 12:56 E 6 0.00 NULL NULL 64.9 64 66.9 64 97% 29.83 1009.6 0.01
31 11:56 E 6 0.00 NULL NULL 66.9 64.9 93% 29.83 1009.5
31 10:56 E 7 0.00 NULL NULL 66 64.9 96% 29.83 1009.5
31 09:56 E 7 0.00 NULL NULL 64.9 64 97% 29.82 1009.4 0.01
31 08:56 E 10 0.00 NULL NULL 64 63 96% 29.82 1009.2
31 07:56 E 10 0.00 NULL NULL 64 64 100% 29.81 1008.9 0.01
31 06:56 E 5 0.00 NULL NULL 64.9 64.9 64.9 63 100% 29.83 1009.6 0.21
31 05:56 E 8 0.00 NULL NULL 64.9 64 97% 29.82 1009.1 0.09
31 04:56 E 8 0.00 NULL NULL 64.9 64 97% 29.83 1009.6 0.06
31 03:56 E 12 G 18 0.00 NULL NULL 64 63 96% 29.86 1010.5 0.04 0.06
31 02:56 E 17 G 25 0.00 NULL NULL 64 63 96% 29.85 1010.2 0.02
31 01:56 E 14 G 25 0.00 NULL NULL 64 62.1 93% 29.88 1011.4
31 00:56 E 13 G 24 0.00 NULL NULL 63 61 66 62.1 93% 29.9 1012.0
30 23:56 E 9 0.00 NULL NULL 64 61 90% 29.92 1012.7
30 22:56 E 12 0.00 NULL NULL 64 61 90% 29.94 1013.5
30 21:56 E 12 0.00 NULL NULL 62.1 61 96% 29.95 1013.7
30 20:56 E 9 0.00 NULL NULL 64 61 90% 29.93 1013.1
30 19:56 E 10 0.00 NULL NULL 66 61 84% 29.93 1012.9
30 18:56 E 14 0.00 NULL NULL 66 61 69.1 64 84% 29.94 1013.3
30 17:56 E 10 0.00 NULL NULL 66 61 84% 29.95 1013.7
30 16:56 E 12 0.00 NULL NULL 66 62.1 87% 29.96 1014.2
30 15:56 E 14 0.00 NULL NULL 66 62.1 87% 29.95 1013.9
30 14:56 E 13 0.00 NULL NULL 69.1 63 81% 29.96 1014.0
30 13:56 E 14 0.00 NULL NULL 64.9 61 87% 29.96 1014.2
30 12:56 E 8 0.00 NULL NULL 64.9 62.1 66 62.1 90% 29.97 1014.6
30 11:56 E 12 0.00 NULL NULL 66 62.1 87% 29.97 1014.3
30 10:56 E 8 0.00 NULL NULL 63 61 93% 29.97 1014.4
30 09:56 E 7 0.00 NULL NULL 63 61 93% 29.97 1014.6
30 08:56 E 7 0.00 NULL NULL 63 61 93% 29.96 1014.1
30 07:56 E 8 0.00 NULL NULL 63 61 93% 29.95 1013.7
30 06:56 E 6 0.00 NULL NULL 62.1 61 63 61 96% 29.94 1013.5
30 05:56 E 12 0.00 NULL NULL 62.1 61 96% 29.93 1013.1
30 04:56 E 9 0.00 NULL NULL 62.1 61 96% 29.92 1012.9
30 03:56 Calm 0.00 NULL NULL 63 61 93% 29.93 1013.1
30 02:56 E 3 0.00 NULL NULL 62.1 61 96% 29.91 1012.5
30 01:56 Calm 0.00 NULL NULL 61 60.1 97% 29.92 1013.0
30 00:56 NE 3 0.00 NULL NULL 62.1 60.1 63 61 93% 29.93 1013.3
29 23:56 Calm 0.00 NULL NULL 62.1 60.1 93% 29.94 1013.6
29 22:56 E 3 0.00 NULL NULL 62.1 60.1 93% 29.93 1013.4
29 21:56 Calm 0.00 NULL NULL 62.1 59 90% 29.93 1013.4
29 20:56 SE 3 0.00 NULL NULL 63 59 87% 29.93 1013.0
29 19:56 E 5 0.00 NULL NULL 62.1 59 90% 29.92 1012.7
29 18:56 E 6 0.00 NULL NULL 62.1 59 66 62.1 90% 29.92 1012.9
29 17:56 E 7 0.00 NULL NULL 64 60.1 87% 29.91 1012.8
29 16:56 E 7 0.00 NULL NULL 64 60.1 87% 29.92 1012.9
29 15:56 E 8 0.00 NULL NULL 64 59 84% 29.93 1013.4
Date Time (cdt) Wind (mph) Vis. (mi.) Weather Sky Cond. Air Dwpt Max. Min. Relative Humidity Wind Chill (°F) Heat Index (°F) altimeter (in) sea level (mb) 1 hr 3 hr 6 hr
6 hour
Temperature (ºF) Pressure Precipitation (in)